Time;durP1;ratioP1;P1;durP2;ratioP2;P2;SDS_P1;SDS_P2;PMS_P1;PMS_P2;Temp;Humidity;BMP_temperature;BMP_pressure;BME280_temperature;BME280_humidity;BME280_pressure;Samples;Min_cycle;Max_cycle;Signal;HPM_P1;HPM_P2
2023/04/16 00:01:46;;;;;;;20.13;10.13;;;;;;;8.85;95.17;102055.06;5074308;28;20489;-44
2023/04/16 00:04:11;;;;;;;19.63;10.60;;;;;;;8.84;94.62;102053.38;5074255;28;20035;-46
2023/04/16 00:06:37;;;;;;;21.48;10.45;;;;;;;8.86;94.68;102061.41;5073021;28;20027;-45
2023/04/16 00:09:02;;;;;;;18.55;10.10;;;;;;;8.83;94.59;102057.25;5074186;28;20128;-45
2023/04/16 00:11:27;;;;;;;18.88;9.95;;;;;;;8.82;94.60;102063.03;5072518;28;20059;-43
2023/04/16 00:13:53;;;;;;;19.40;10.50;;;;;;;8.77;94.80;102055.56;5070791;28;20029;-44
2023/04/16 00:16:18;;;;;;;22.77;10.45;;;;;;;8.79;94.90;102069.06;5074133;28;20024;-43
2023/04/16 00:18:43;;;;;;;20.27;10.60;;;;;;;8.78;95.23;102059.97;5074124;28;20024;-45
2023/04/16 00:21:09;;;;;;;21.60;10.88;;;;;;;8.73;95.69;102057.16;5073974;28;20492;-44
2023/04/16 00:23:34;;;;;;;18.83;10.35;;;;;;;8.73;95.80;102051.66;5074000;28;20032;-44
2023/04/16 00:25:59;;;;;;;19.30;10.50;;;;;;;8.79;95.91;102053.34;5072773;28;20029;-44
2023/04/16 00:28:26;;;;;;;21.02;10.90;;;;;;;8.83;96.13;102056.44;5073674;28;20051;-46
2023/04/16 00:30:52;;;;;;;19.05;10.88;;;;;;;8.83;96.07;102059.19;5073701;28;20054;-45
2023/04/16 00:33:17;;;;;;;19.20;10.30;;;;;;;8.81;95.89;102064.94;5069549;28;20097;-46
2023/04/16 00:35:45;;;;;;;21.75;11.20;;;;;;;8.77;96.50;102051.94;5073636;28;20504;-44
2023/04/16 00:38:10;;;;;;;20.10;10.70;;;;;;;8.76;96.90;102059.41;5073392;28;20029;-43
2023/04/16 00:40:36;;;;;;;22.55;11.80;;;;;;;8.73;96.68;102063.53;5073831;28;20059;-44
2023/04/16 00:43:01;;;;;;;20.23;10.93;;;;;;;8.75;97.10;102054.97;5073502;28;20075;-47
2023/04/16 00:45:27;;;;;;;21.55;10.82;;;;;;;8.76;97.16;102050.28;5073475;28;20029;-44
2023/04/16 00:47:52;;;;;;;19.08;11.07;;;;;;;8.65;98.57;102063.16;5073467;28;20024;-44
2023/04/16 00:50:17;;;;;;;18.70;10.93;;;;;;;8.64;98.52;102056.84;5073442;28;20447;-44
2023/04/16 00:52:46;;;;;;;19.75;11.57;;;;;;;8.66;98.76;102054.63;5073127;28;20025;-44
2023/04/16 00:55:12;;;;;;;18.35;11.40;;;;;;;8.69;98.94;102054.09;5073346;28;20107;-44
2023/04/16 00:57:38;;;;;;;20.90;11.60;;;;;;;8.77;99.09;102058.31;5073326;28;20103;-44
2023/04/16 01:00:04;;;;;;;19.58;11.55;;;;;;;8.74;99.18;102042.28;5073256;28;20074;-43
2023/04/16 01:02:29;;;;;;;21.85;11.60;;;;;;;8.78;98.70;102062.75;5073119;28;20055;-43
2023/04/16 01:04:55;;;;;;;23.10;12.23;;;;;;;8.78;98.86;102050.84;5073091;28;20493;-45
2023/04/16 01:07:20;;;;;;;20.48;11.57;;;;;;;8.80;98.98;102057.75;5073020;28;20458;-45
2023/04/16 01:09:45;;;;;;;21.20;12.07;;;;;;;8.77;98.89;102049.19;5073084;28;20025;-45
2023/04/16 01:12:11;;;;;;;20.42;11.93;;;;;;;8.81;99.06;102050.34;5073012;28;20123;-43
2023/04/16 01:14:36;;;;;;;20.42;11.63;;;;;;;8.84;100.00;102047.88;5080908;28;20103;-44
2023/04/16 01:17:02;;;;;;;20.67;12.07;;;;;;;8.86;100.00;102051.19;5092672;28;20020;-47
2023/04/16 01:19:35;;;;;;;20.00;11.82;;;;;;;8.84;99.93;102050.63;5092894;28;20032;-46
2023/04/16 01:22:01;;;;;;;23.13;12.45;;;;;;;8.80;99.93;102045.91;5093237;28;20035;-43
2023/04/16 01:24:26;;;;;;;22.33;11.88;;;;;;;8.82;100.00;102038.19;5093029;28;20074;-47
2023/04/16 01:26:51;;;;;;;20.80;12.25;;;;;;;8.80;100.00;102046.72;5092914;28;20060;-46
2023/04/16 01:29:17;;;;;;;20.83;11.55;;;;;;;8.74;100.00;102042.28;5087708;28;20468;-45
2023/04/16 01:31:42;;;;;;;21.33;11.93;;;;;;;8.68;100.00;102051.63;5092780;28;20043;-45
2023/04/16 01:34:07;;;;;;;21.02;11.85;;;;;;;8.69;100.00;102045.00;5092362;28;20012;-43
2023/04/16 01:36:32;;;;;;;19.77;12.20;;;;;;;8.68;100.00;102048.84;5092133;28;20491;-46
2023/04/16 01:38:58;;;;;;;20.35;12.10;;;;;;;8.67;100.00;102053.53;5092176;28;20464;-44
2023/04/16 01:41:23;;;;;;;20.48;11.98;;;;;;;8.70;100.00;102054.91;5092602;28;20028;-44
2023/04/16 01:43:48;;;;;;;19.60;11.88;;;;;;;8.74;100.00;102062.41;5092700;28;20024;-45
2023/04/16 01:46:17;;;;;;;19.90;11.65;;;;;;;8.72;100.00;102053.59;5092427;28;20082;-46
2023/04/16 01:48:43;;;;;;;19.67;12.07;;;;;;;8.78;100.00;102061.88;5092460;28;20040;-45
2023/04/16 01:51:09;;;;;;;22.23;12.10;;;;;;;8.79;100.00;102064.38;5072098;28;20024;-45
2023/04/16 01:53:34;;;;;;;20.70;12.00;;;;;;;8.82;100.00;102061.09;5072041;28;20040;-45
2023/04/16 01:56:00;;;;;;;20.10;12.13;;;;;;;8.80;100.00;102059.69;5089624;28;20037;-47
2023/04/16 01:58:28;;;;;;;22.73;12.82;;;;;;;8.58;100.00;102019.25;5092411;28;20040;-46
2023/04/16 02:00:54;;;;;;;19.52;11.68;;;;;;;8.72;100.00;102061.88;5092288;28;20035;-44
2023/04/16 02:03:20;;;;;;;20.95;11.77;;;;;;;8.73;100.00;102065.44;5092149;28;20028;-46
2023/04/16 02:05:46;;;;;;;19.73;11.75;;;;;;;8.74;100.00;102062.41;5092280;28;20028;-44
2023/04/16 02:08:11;;;;;;;22.02;12.07;;;;;;;8.74;100.00;102061.59;5092185;28;20453;-44
2023/04/16 02:10:37;;;;;;;19.52;11.70;;;;;;;8.72;100.00;102056.34;5092010;28;20135;-44
2023/04/16 02:13:02;;;;;;;20.02;11.35;;;;;;;8.74;100.00;102054.13;5091982;28;20043;-44
2023/04/16 02:15:27;;;;;;;19.60;11.55;;;;;;;8.78;100.00;102065.50;5091973;28;20117;-43
2023/04/16 02:17:55;;;;;;;20.08;11.52;;;;;;;8.81;100.00;102055.84;5092103;28;20480;-44
2023/04/16 02:20:21;;;;;;;19.88;11.38;;;;;;;8.83;100.00;102051.72;5091771;28;20055;-43
2023/04/16 02:22:46;;;;;;;20.15;11.50;;;;;;;8.83;100.00;102050.91;5091765;28;20059;-47
2023/04/16 02:25:13;;;;;;;19.27;11.50;;;;;;;8.81;100.00;102055.84;5091755;28;20473;-46
2023/04/16 02:27:38;;;;;;;18.95;11.70;;;;;;;8.75;100.00;102052.22;5091797;28;20040;-45
2023/04/16 02:30:04;;;;;;;20.60;11.40;;;;;;;8.79;100.00;102058.84;5091267;28;20032;-43
2023/04/16 02:32:30;;;;;;;20.70;11.40;;;;;;;8.80;100.00;102056.94;5088080;28;20039;-46
2023/04/16 02:34:56;;;;;;;20.00;11.40;;;;;;;8.76;100.00;102050.28;5084131;28;20020;-46
2023/04/16 02:37:21;;;;;;;19.20;11.60;;;;;;;8.71;100.00;102045.56;5071838;28;20033;-47
2023/04/16 02:39:48;;;;;;;21.00;11.85;;;;;;;8.74;100.00;102064.34;5076074;28;20507;-44
2023/04/16 02:42:14;;;;;;;20.40;11.57;;;;;;;8.71;100.00;102062.97;5091825;28;20028;-44
2023/04/16 02:44:39;;;;;;;20.48;11.82;;;;;;;8.70;100.00;102060.44;5091497;28;20107;-47
2023/04/16 02:47:05;;;;;;;20.20;11.85;;;;;;;8.78;100.00;102061.88;5091727;28;20228;-46
2023/04/16 02:49:30;;;;;;;18.65;11.73;;;;;;;8.78;100.00;102064.66;5091638;28;20028;-45
2023/04/16 02:51:56;;;;;;;21.13;12.15;;;;;;;8.82;100.00;102055.56;5091658;28;20052;-43
2023/04/16 02:54:22;;;;;;;19.65;12.05;;;;;;;8.82;100.00;102060.28;5091561;28;20378;-44
2023/04/16 02:56:47;;;;;;;20.80;12.40;;;;;;;8.78;100.00;102062.75;5091685;28;20113;-46
2023/04/16 02:59:12;;;;;;;20.15;12.32;;;;;;;8.83;100.00;102060.00;5091206;28;20432;-43
2023/04/16 03:01:37;;;;;;;19.88;12.35;;;;;;;8.83;100.00;102068.28;5071075;28;20078;-43
2023/04/16 03:04:03;;;;;;;22.92;12.82;;;;;;;8.85;100.00;102071.63;5071180;28;20529;-46
2023/04/16 03:06:28;;;;;;;22.23;13.00;;;;;;;8.82;100.00;102068.56;5088916;28;20028;-46
2023/04/16 03:08:53;;;;;;;20.77;12.90;;;;;;;8.83;100.00;102071.03;5091625;28;20377;-45
2023/04/16 03:11:19;;;;;;;20.50;12.60;;;;;;;8.79;100.00;102074.59;5091437;28;20024;-44
2023/04/16 03:13:44;;;;;;;22.80;12.90;;;;;;;8.77;100.00;102074.88;5091431;28;20063;-47
2023/04/16 03:16:10;;;;;;;20.55;12.60;;;;;;;8.72;100.00;102066.53;5091273;28;20171;-44
2023/04/16 03:18:35;;;;;;;21.88;12.90;;;;;;;8.77;100.00;102079.53;5091096;28;20047;-45
2023/04/16 03:21:01;;;;;;;19.67;12.73;;;;;;;8.73;100.00;102079.22;5090816;28;20032;-43
2023/04/16 03:23:27;;;;;;;21.70;12.88;;;;;;;8.73;100.00;102088.38;5091184;28;20063;-46
2023/04/16 03:25:52;;;;;;;20.23;12.55;;;;;;;8.73;100.00;102093.03;5091169;28;20371;-44
2023/04/16 03:28:17;;;;;;;22.65;13.40;;;;;;;8.74;100.00;102078.97;5091400;28;20040;-43
2023/04/16 03:30:49;;;;;;;21.55;12.50;;;;;;;8.77;100.00;102083.16;5091108;28;20036;-44
2023/04/16 03:33:14;;;;;;;19.85;12.85;;;;;;;8.72;100.00;102083.94;5091179;28;20442;-43
2023/04/16 03:35:40;;;;;;;21.95;12.93;;;;;;;8.65;100.00;102082.47;5086973;28;20051;-43
2023/04/16 03:38:05;;;;;;;26.25;14.20;;;;;;;8.66;100.00;102084.97;5091112;28;20519;-45
2023/04/16 03:40:30;;;;;;;22.25;13.32;;;;;;;8.69;100.00;102075.34;5092712;28;20072;-43
2023/04/16 03:42:56;;;;;;;22.48;13.95;;;;;;;8.66;100.00;102079.44;5094944;28;20031;-46
2023/04/16 03:45:21;;;;;;;22.85;14.23;;;;;;;8.70;100.00;102072.31;5094551;28;20363;-44
2023/04/16 03:47:51;;;;;;;23.80;14.13;;;;;;;8.72;100.00;102083.94;5094849;28;20020;-44
2023/04/16 03:50:17;;;;;;;22.73;14.43;;;;;;;8.68;100.00;102082.78;5094953;28;20039;-45
2023/04/16 03:52:43;;;;;;;22.50;14.43;;;;;;;8.69;100.00;102081.69;5094775;28;20111;-43
2023/04/16 03:55:08;;;;;;;26.27;16.63;;;;;;;8.69;100.00;102083.63;5094771;28;20016;-47
2023/04/16 03:57:33;;;;;;;23.65;15.57;;;;;;;8.74;100.00;102089.19;5094621;28;20032;-44
2023/04/16 03:59:59;;;;;;;23.80;15.30;;;;;;;8.74;100.00;102078.97;5094572;28;20118;-47
2023/04/16 04:02:24;;;;;;;26.23;16.40;;;;;;;8.69;100.00;102089.16;5091828;28;20036;-44
2023/04/16 04:04:49;;;;;;;24.17;15.73;;;;;;;8.65;100.00;102077.78;5073072;28;20029;-45
2023/04/16 04:07:15;;;;;;;25.15;15.68;;;;;;;8.62;100.00;102078.31;5094571;28;20036;-45
2023/04/16 04:09:40;;;;;;;25.15;15.90;;;;;;;8.65;100.00;102090.75;5094399;28;20024;-44
2023/04/16 04:12:05;;;;;;;25.58;15.65;;;;;;;8.69;100.00;102095.50;5075193;28;20037;-43
2023/04/16 04:14:31;;;;;;;25.65;15.98;;;;;;;8.66;100.00;102100.69;5074132;28;20033;-46
2023/04/16 04:16:56;;;;;;;23.73;16.45;;;;;;;8.69;100.00;102095.50;5091768;28;20035;-46
2023/04/16 04:19:21;;;;;;;25.00;16.25;;;;;;;8.71;100.00;102087.78;5094196;28;20059;-44
2023/04/16 04:21:47;;;;;;;24.60;16.23;;;;;;;8.70;100.00;102091.63;5076543;28;20033;-44
2023/04/16 04:24:12;;;;;;;25.67;16.95;;;;;;;8.70;100.00;102094.41;5073965;28;20064;-44
2023/04/16 04:26:37;;;;;;;23.65;16.67;;;;;;;8.71;100.00;102093.31;5088041;28;20103;-44
2023/04/16 04:29:02;;;;;;;24.38;16.17;;;;;;;8.58;100.00;102074.41;5093841;28;20114;-44
2023/04/16 04:31:28;;;;;;;25.73;15.98;;;;;;;8.63;100.00;102096.53;5093867;28;20035;-43
2023/04/16 04:33:54;;;;;;;24.55;15.88;;;;;;;8.60;100.00;102094.31;5094024;28;20089;-46
2023/04/16 04:36:19;;;;;;;23.83;15.57;;;;;;;8.55;100.00;102099.75;5089456;28;20027;-47
2023/04/16 04:38:45;;;;;;;25.23;14.52;;;;;;;8.55;100.00;102099.75;5093961;28;20043;-47
2023/04/16 04:41:10;;;;;;;22.88;15.23;;;;;;;8.56;100.00;102101.41;5093851;28;20557;-45
2023/04/16 04:43:36;;;;;;;24.23;15.85;;;;;;;8.51;100.00;102093.13;5093786;28;20454;-47
2023/04/16 04:46:01;;;;;;;24.13;14.93;;;;;;;8.19;100.00;102052.50;5093590;28;20031;-47
2023/04/16 04:48:27;;;;;;;23.73;15.50;;;;;;;8.56;100.00;102113.31;5093689;28;20052;-44
2023/04/16 04:50:52;;;;;;;23.67;16.02;;;;;;;8.60;100.00;102123.81;5092930;28;20059;-43
2023/04/16 04:53:18;;;;;;;23.67;15.15;;;;;;;8.57;100.00;102112.22;5091933;28;20032;-44
2023/04/16 04:55:43;;;;;;;25.65;15.35;;;;;;;8.59;100.00;102109.19;5093458;28;20028;-46
2023/04/16 04:58:08;;;;;;;21.58;14.90;;;;;;;8.61;100.00;102117.19;5093424;28;20028;-44
2023/04/16 05:00:35;;;;;;;23.27;15.18;;;;;;;8.62;100.00;102122.47;5093455;28;20053;-46
2023/04/16 05:03:02;;;;;;;24.13;15.50;;;;;;;8.61;100.00;102117.19;5093543;28;20044;-43
2023/04/16 05:05:27;;;;;;;24.40;15.73;;;;;;;8.66;100.00;102120.00;5093005;28;20035;-43
2023/04/16 05:07:52;;;;;;;22.27;14.75;;;;;;;8.68;100.00;102117.81;5092992;28;20107;-47
2023/04/16 05:10:18;;;;;;;25.40;15.52;;;;;;;8.69;100.00;102119.50;5093183;28;20430;-43
2023/04/16 05:12:44;;;;;;;25.13;15.70;;;;;;;8.73;100.00;102115.09;5093163;28;20032;-48
2023/04/16 05:15:10;;;;;;;25.83;15.60;;;;;;;8.68;100.00;102121.41;5093091;28;20035;-46
2023/04/16 05:17:35;;;;;;;24.58;15.40;;;;;;;8.73;100.00;102121.47;5092970;28;20032;-44
2023/04/16 05:20:00;;;;;;;29.23;15.15;;;;;;;8.76;100.00;102124.78;5093104;28;20016;-43
2023/04/16 05:22:26;;;;;;;24.33;15.20;;;;;;;8.82;100.00;102126.50;5092785;28;20036;-44
2023/04/16 05:24:51;;;;;;;24.77;15.93;;;;;;;8.82;100.00;102130.09;5092728;28;20046;-46
2023/04/16 05:27:16;;;;;;;23.98;15.80;;;;;;;8.83;100.00;102140.03;5092715;28;20085;-44
2023/04/16 05:29:41;;;;;;;24.08;15.40;;;;;;;8.84;100.00;102130.66;5092791;28;20392;-48
2023/04/16 05:32:07;;;;;;;25.00;16.50;;;;;;;8.81;100.00;102136.69;5092606;28;20031;-45
2023/04/16 05:34:32;;;;;;;26.17;16.25;;;;;;;8.84;100.00;102127.06;5090885;28;20496;-44
2023/04/16 05:36:57;;;;;;;27.40;17.20;;;;;;;8.81;100.00;102133.13;5089425;28;20032;-44
2023/04/16 05:39:23;;;;;;;27.98;17.27;;;;;;;8.84;100.00;102135.31;5093134;28;20055;-44
2023/04/16 05:41:48;;;;;;;27.05;16.95;;;;;;;8.82;100.00;102137.53;5092647;28;20020;-47
2023/04/16 05:44:14;;;;;;;28.52;16.80;;;;;;;8.82;100.00;102143.88;5092771;28;20032;-44
2023/04/16 05:46:39;;;;;;;27.15;16.48;;;;;;;8.78;100.00;102128.97;5092743;28;20488;-44
2023/04/16 05:49:05;;;;;;;25.30;16.60;;;;;;;8.79;100.00;102143.56;5086646;28;20024;-45
2023/04/16 05:51:31;;;;;;;26.38;17.15;;;;;;;8.80;100.00;102142.47;5081081;28;20032;-46
2023/04/16 05:53:56;;;;;;;28.38;17.35;;;;;;;8.81;100.00;102146.91;5092823;28;20736;-47
2023/04/16 05:56:22;;;;;;;25.52;16.35;;;;;;;8.81;100.00;102146.91;5092701;28;20020;-45
2023/04/16 05:58:47;;;;;;;27.60;17.25;;;;;;;8.76;100.00;102149.59;5092664;28;20059;-45
2023/04/16 06:01:12;;;;;;;24.60;16.40;;;;;;;8.76;100.00;102150.47;5092451;28;20028;-45
2023/04/16 06:03:38;;;;;;;27.08;17.25;;;;;;;8.74;100.00;102155.41;5092449;28;20066;-44
2023/04/16 06:06:03;;;;;;;25.95;16.70;;;;;;;8.78;100.00;102152.94;5092190;28;20015;-46
2023/04/16 06:08:28;;;;;;;26.92;16.88;;;;;;;8.79;100.00;102154.63;5092251;28;20040;-44
2023/04/16 06:10:54;;;;;;;27.52;17.23;;;;;;;8.83;100.00;102164.03;5092164;28;20106;-48
2023/04/16 06:13:19;;;;;;;28.80;16.90;;;;;;;8.83;100.00;102155.75;5092023;28;20074;-45
2023/04/16 06:15:44;;;;;;;27.38;16.85;;;;;;;8.85;100.00;102157.16;5091950;28;20035;-45
2023/04/16 06:18:10;;;;;;;26.63;16.83;;;;;;;8.88;100.00;102156.63;5092150;28;20032;-44
2023/04/16 06:20:35;;;;;;;27.45;17.00;;;;;;;8.88;100.00;102159.38;5092036;28;20020;-46
2023/04/16 06:23:01;;;;;;;25.08;16.88;;;;;;;8.88;100.00;102162.13;5091887;28;20024;-44
2023/04/16 06:25:26;;;;;;;27.45;18.35;;;;;;;8.87;100.00;102168.78;5091557;28;20024;-44
2023/04/16 06:27:51;;;;;;;28.33;17.25;;;;;;;8.90;100.00;102159.94;5091597;28;20420;-45
2023/04/16 06:30:16;;;;;;;27.35;18.08;;;;;;;8.84;100.00;102165.69;5086935;28;20031;-43
2023/04/16 06:32:42;;;;;;;29.20;18.40;;;;;;;8.89;100.00;102172.09;5090423;28;20027;-46
2023/04/16 06:35:08;;;;;;;26.65;17.30;;;;;;;8.92;100.00;102170.75;5091650;28;20020;-44
2023/04/16 06:37:33;;;;;;;26.63;17.95;;;;;;;8.92;100.00;102175.41;5090036;28;20111;-44
2023/04/16 06:39:58;;;;;;;30.33;18.58;;;;;;;8.93;100.00;102191.72;5091621;28;20120;-45
2023/04/16 06:42:24;;;;;;;27.70;17.65;;;;;;;8.94;100.00;102182.34;5091808;28;20024;-44
2023/04/16 06:44:49;;;;;;;32.22;19.17;;;;;;;8.97;100.00;102184.59;5091832;28;20034;-45
2023/04/16 06:47:15;;;;;;;29.65;18.75;;;;;;;8.94;100.00;102187.03;5091954;28;20052;-46
2023/04/16 06:49:40;;;;;;;27.73;19.05;;;;;;;8.92;100.00;102189.22;5091777;28;20035;-44
2023/04/16 06:52:05;;;;;;;28.80;18.85;;;;;;;8.90;100.00;102195.84;5091597;28;20032;-44
2023/04/16 06:54:31;;;;;;;31.95;18.85;;;;;;;8.93;100.00;102200.00;5091733;28;20020;-44
2023/04/16 06:56:56;;;;;;;28.83;18.10;;;;;;;8.96;100.00;102202.22;5091609;28;20042;-46
2023/04/16 06:59:21;;;;;;;27.45;18.20;;;;;;;9.04;100.00;102189.88;5091622;28;20031;-44
2023/04/16 07:01:46;;;;;;;29.35;18.52;;;;;;;9.08;100.00;102196.53;5091542;28;20034;-49
2023/04/16 07:04:12;;;;;;;26.98;18.35;;;;;;;9.09;100.00;102202.91;5091583;28;20017;-44
2023/04/16 07:06:37;;;;;;;27.40;18.77;;;;;;;9.13;100.00;102202.13;5089967;28;20028;-44
2023/04/16 07:09:02;;;;;;;28.73;18.95;;;;;;;9.14;100.00;102200.19;5091561;28;20469;-44
2023/04/16 07:11:28;;;;;;;29.48;18.73;;;;;;;9.16;100.00;102204.34;5091408;28;20032;-44
2023/04/16 07:13:53;;;;;;;29.45;18.73;;;;;;;9.15;100.00;102216.50;5091506;28;20036;-45
2023/04/16 07:16:19;;;;;;;27.08;18.67;;;;;;;9.17;100.00;102217.03;5095305;28;20032;-45
2023/04/16 07:18:44;;;;;;;28.08;18.38;;;;;;;9.19;100.00;102211.28;5095250;28;20032;-44
2023/04/16 07:21:10;;;;;;;30.48;18.88;;;;;;;9.23;100.00;102214.34;5095203;28;20448;-44
2023/04/16 07:23:35;;;;;;;26.10;18.10;;;;;;;9.26;100.00;102216.59;5095434;28;20047;-44
2023/04/16 07:26:00;;;;;;;28.23;18.65;;;;;;;9.15;100.00;102197.16;5091671;28;20081;-45
2023/04/16 07:28:26;;;;;;;28.60;18.77;;;;;;;9.28;100.00;102215.22;5095136;28;20510;-46
2023/04/16 07:30:51;;;;;;;30.15;19.02;;;;;;;9.30;100.00;102226.84;5095473;28;20074;-46
2023/04/16 07:33:16;;;;;;;25.52;18.60;;;;;;;9.30;100.00;102215.78;5094946;28;20490;-45
2023/04/16 07:35:42;;;;;;;30.20;19.50;;;;;;;9.26;100.00;102224.88;5095268;28;20500;-44
2023/04/16 07:38:07;;;;;;;28.75;18.50;;;;;;;9.20;100.00;102233.09;5095113;28;20020;-44
2023/04/16 07:40:32;;;;;;;26.73;18.58;;;;;;;9.26;100.00;102230.41;5095119;28;20051;-43
2023/04/16 07:42:57;;;;;;;27.73;18.83;;;;;;;9.31;100.00;102234.00;5091019;28;20027;-44
2023/04/16 07:45:23;;;;;;;29.95;19.75;;;;;;;9.27;100.00;102234.78;5094842;28;20028;-45
2023/04/16 07:47:48;;;;;;;28.75;18.30;;;;;;;9.42;100.00;102243.22;5095134;28;20032;-43
2023/04/16 07:50:15;;;;;;;28.13;19.10;;;;;;;9.47;100.00;102240.50;5095016;28;20085;-44
2023/04/16 07:52:41;;;;;;;28.45;18.95;;;;;;;9.54;100.00;102243.03;5083443;28;20104;-43
2023/04/16 07:55:07;;;;;;;28.67;19.25;;;;;;;9.60;100.00;102260.47;5074667;28;20075;-45
2023/04/16 07:57:33;;;;;;;29.05;19.23;;;;;;;9.59;100.00;102251.34;5082554;28;20028;-45
2023/04/16 08:00:00;;;;;;;30.05;19.48;;;;;;;9.65;100.00;102246.69;5073354;28;20483;-43
2023/04/16 08:02:26;;;;;;;28.17;18.63;;;;;;;9.72;100.00;102260.28;5082326;28;20031;-43
2023/04/16 08:04:51;;;;;;;29.63;20.50;;;;;;;9.74;100.00;102252.56;5093630;28;20028;-42
2023/04/16 08:07:17;;;;;;;30.05;19.73;;;;;;;9.74;100.00;102258.91;5093658;28;20051;-41
2023/04/16 08:09:51;;;;;;;28.38;19.00;;;;;;;9.75;100.00;102265.28;5092192;28;20042;-44
2023/04/16 08:12:16;;;;;;;29.75;19.90;;;;;;;9.70;100.00;102266.09;5093037;28;20067;-44
2023/04/16 08:14:43;;;;;;;29.02;19.92;;;;;;;9.67;100.00;102274.91;5093315;28;20389;-44
2023/04/16 08:17:09;;;;;;;31.05;19.20;;;;;;;9.75;100.00;102268.06;5091904;28;20081;-46
2023/04/16 08:19:34;;;;;;;29.98;18.95;;;;;;;9.79;100.00;102269.16;5092980;28;20365;-44
2023/04/16 08:22:00;;;;;;;28.85;19.52;;;;;;;9.80;100.00;102271.69;5092919;28;20034;-43
2023/04/16 08:24:25;;;;;;;29.20;19.58;;;;;;;9.80;100.00;102279.97;5092835;28;20477;-43
2023/04/16 08:26:50;;;;;;;32.60;19.50;;;;;;;9.88;100.00;102284.16;5092190;28;20059;-43
2023/04/16 08:29:16;;;;;;;29.33;19.70;;;;;;;9.88;100.00;102283.34;5093303;28;20020;-44
2023/04/16 08:31:41;;;;;;;31.17;19.77;;;;;;;9.83;100.00;102281.38;5093330;28;20071;-44
2023/04/16 08:34:06;;;;;;;31.48;19.42;;;;;;;9.88;100.00;102280.56;5092842;28;20064;-44
2023/04/16 08:36:32;;;;;;;30.15;20.17;;;;;;;9.93;100.00;102280.59;5092654;28;20435;-44
2023/04/16 08:38:57;;;;;;;28.42;19.95;;;;;;;9.96;100.00;102285.59;5088213;28;20043;-44
2023/04/16 08:41:23;;;;;;;28.95;19.80;;;;;;;9.96;100.00;102280.06;5092360;28;20032;-44
2023/04/16 08:43:50;;;;;;;29.65;20.00;;;;;;;10.02;100.00;102287.28;5092316;28;20032;-43
2023/04/16 08:46:16;;;;;;;29.60;20.23;;;;;;;10.02;100.00;102283.69;5092922;28;20047;-44
2023/04/16 08:48:45;;;;;;;31.23;20.70;;;;;;;10.00;100.00;102281.22;5092645;28;20115;-46
2023/04/16 08:51:12;;;;;;;29.23;20.27;;;;;;;10.06;100.00;102298.69;5092514;28;20036;-45
2023/04/16 08:53:57;;;;;;;29.00;20.50;;;;;;;10.06;100.00;102299.50;5092453;28;20024;-47
2023/04/16 08:56:23;;;;;;;29.42;20.77;;;;;;;10.05;100.00;102295.06;5092850;28;20032;-44
2023/04/16 08:58:50;;;;;;;30.30;20.75;;;;;;;10.09;100.00;102300.88;5092417;28;20488;-44
2023/04/16 09:01:17;;;;;;;31.17;20.67;;;;;;;10.10;100.00;102294.25;5092363;28;20028;-44
2023/04/16 09:03:45;;;;;;;32.60;20.25;;;;;;;10.15;100.00;102295.13;5092136;28;20024;-44
2023/04/16 09:06:10;;;;;;;31.13;21.35;;;;;;;10.17;100.00;102307.84;5092173;28;20050;-44
2023/04/16 09:08:37;;;;;;;29.27;21.38;;;;;;;10.15;100.00;102300.66;5091674;28;20385;-48
2023/04/16 09:11:02;;;;;;;31.27;20.80;;;;;;;10.18;100.00;102302.03;5092028;28;20024;-46
2023/04/16 09:13:27;;;;;;;28.92;20.77;;;;;;;10.24;100.00;102313.97;5086698;28;20032;-45
2023/04/16 09:15:53;;;;;;;29.83;21.77;;;;;;;10.23;100.00;102304.00;5090561;28;20545;-44
2023/04/16 09:18:20;;;;;;;30.10;20.70;;;;;;;10.22;100.00;102303.19;5091878;28;20449;-44
2023/04/16 09:20:46;;;;;;;32.72;21.10;;;;;;;10.23;100.00;102320.59;5092024;28;20020;-44
2023/04/16 09:23:11;;;;;;;30.70;21.30;;;;;;;10.18;100.00;102299.28;5091845;28;20050;-45
2023/04/16 09:25:37;;;;;;;31.48;21.98;;;;;;;10.23;100.00;102313.16;5091724;28;20126;-44
2023/04/16 09:28:03;;;;;;;29.63;20.63;;;;;;;10.25;100.00;102327.53;5091635;28;20047;-45
2023/04/16 09:30:28;;;;;;;31.00;21.38;;;;;;;10.26;100.00;102322.84;5091731;28;20373;-45
2023/04/16 09:33:20;;;;;;;33.30;21.85;;;;;;;10.24;100.00;102323.13;5091651;28;20024;-44
2023/04/16 09:35:51;;;;;;;31.00;21.13;;;;;;;10.28;100.00;102328.94;5091992;28;20028;-44
2023/04/16 09:38:17;;;;;;;30.98;21.02;;;;;;;10.28;100.00;102326.19;5090997;28;20032;-43
2023/04/16 09:40:42;;;;;;;31.92;21.67;;;;;;;10.28;100.00;102328.94;5076987;28;20130;-43
2023/04/16 09:43:16;;;;;;;32.08;21.58;;;;;;;10.23;100.00;102323.38;5080500;28;20385;-44
2023/04/16 09:45:49;;;;;;;32.15;21.63;;;;;;;10.32;100.00;102335.59;5091632;28;20048;-45
2023/04/16 09:48:14;;;;;;;30.55;20.85;;;;;;;10.35;100.00;102339.75;5091274;28;20023;-45
2023/04/16 09:50:49;;;;;;;34.20;22.10;;;;;;;10.33;100.00;102331.72;5091239;28;20036;-45
2023/04/16 09:53:23;;;;;;;31.42;21.02;;;;;;;10.34;100.00;102338.94;5090749;28;20023;-45
2023/04/16 09:55:48;;;;;;;29.02;21.70;;;;;;;10.39;100.00;102335.38;5088018;28;20042;-45
2023/04/16 09:58:18;;;;;;;30.40;20.67;;;;;;;10.42;99.84;102338.44;5087000;28;20016;-46
2023/04/16 10:00:43;;;;;;;31.85;21.52;;;;;;;10.44;99.78;102332.63;5070859;28;20089;-45
2023/04/16 10:03:09;;;;;;;34.30;23.90;;;;;;;10.42;100.00;102335.69;5069456;28;20132;-44
2023/04/16 10:05:35;;;;;;;30.50;22.17;;;;;;;10.46;99.76;102341.50;5070779;28;20035;-45
2023/04/16 10:08:01;;;;;;;32.83;23.00;;;;;;;10.47;99.61;102343.19;5077417;28;20027;-46
2023/04/16 10:10:27;;;;;;;31.70;22.35;;;;;;;10.48;99.74;102342.06;5090767;28;20039;-45
2023/04/16 10:12:54;;;;;;;31.27;21.92;;;;;;;10.48;99.40;102338.50;5090659;28;20032;-45
2023/04/16 10:15:20;;;;;;;32.85;22.77;;;;;;;10.54;99.45;102348.47;5090868;28;20032;-44
2023/04/16 10:17:46;;;;;;;31.00;21.73;;;;;;;10.58;99.50;102338.53;5089509;28;20031;-45
2023/04/16 10:20:13;;;;;;;30.77;21.98;;;;;;;10.60;99.58;102348.25;5090786;28;20032;-45
2023/04/16 10:22:38;;;;;;;28.63;21.00;;;;;;;10.64;99.15;102339.38;5090387;28;20032;-45
2023/04/16 10:25:05;;;;;;;30.48;21.77;;;;;;;10.68;99.03;102346.88;5089547;28;20496;-44
2023/04/16 10:27:31;;;;;;;31.67;21.75;;;;;;;10.71;98.43;102337.22;5090667;28;20102;-48
2023/04/16 10:29:57;;;;;;;30.95;21.70;;;;;;;10.70;98.35;102352.97;5090717;28;20064;-45
2023/04/16 10:32:27;;;;;;;29.92;22.02;;;;;;;10.69;98.37;102344.94;5089972;28;20016;-45
2023/04/16 10:34:53;;;;;;;34.25;22.42;;;;;;;10.73;98.30;102352.44;5071137;28;20123;-45
2023/04/16 10:37:28;;;;;;;31.92;22.38;;;;;;;10.70;97.81;102343.84;5070759;28;20108;-44
2023/04/16 10:39:53;;;;;;;31.00;21.60;;;;;;;10.80;97.98;102348.56;5070395;28;20115;-42
2023/04/16 10:42:18;;;;;;;32.60;21.90;;;;;;;10.79;97.84;102360.75;5070223;28;20563;-42
2023/04/16 10:44:44;;;;;;;30.45;21.42;;;;;;;10.74;97.26;102351.34;5084662;28;20615;-43
2023/04/16 10:47:12;;;;;;;31.15;21.35;;;;;;;10.80;97.73;102357.72;5090069;28;20032;-43
2023/04/16 10:49:37;;;;;;;29.58;21.73;;;;;;;10.75;97.23;102360.47;5089665;28;20039;-43
2023/04/16 10:52:11;;;;;;;31.10;21.50;;;;;;;10.72;97.26;102355.50;5090498;28;20071;-43
2023/04/16 10:54:37;;;;;;;31.60;21.75;;;;;;;10.74;97.36;102356.88;5090394;28;20063;-44
2023/04/16 10:57:04;;;;;;;32.35;21.10;;;;;;;10.76;97.39;102359.38;5090384;28;20036;-44
2023/04/16 10:59:34;;;;;;;30.60;20.85;;;;;;;10.69;98.46;102342.19;5089976;28;20028;-45
2023/04/16 11:02:05;;;;;;;29.48;20.63;;;;;;;10.75;98.60;102355.78;5089967;28;20020;-45
2023/04/16 11:04:36;;;;;;;30.90;20.75;;;;;;;10.71;98.54;102343.56;5089873;28;20444;-44